KFEP/FEP METAR and TAF weather

Enter ICAO airport designator
Station Type Date Time Source
KFEP METAR 2020/01/18 12:55 UTC NOAA

KFEP 181255Z AUTO 22004KT 3SM BR OVC004 00/00 A2970 RMK AO2 T00000000


Station Type Date Time Source
KFEP Decoded METAR 2020/01/18 12:55 UTC NOAA

Freeport, Albertus Airport, IL, United States (KFEP) 42-14-47N 089-34-56W
Jan 18, 2020 - 07:55 AM EST / 2020.01.18 1255 UTC
Wind: from the SW (220 degrees) at 5 MPH (4 KT):0
Visibility: 3 mile(s):0
Sky conditions: overcast
Weather: mist
Temperature: 32.0 F (0.0 C)
Windchill: 26 F (-3 C):1
Dew Point: 32.0 F (0.0 C)
Relative Humidity: 100%
Pressure (altimeter): 29.7 in. Hg (1005 hPa)
ob: KFEP 181255Z AUTO 22004KT 3SM BR OVC004 00/00 A2970 RMK AO2 T00000000
cycle: 13

Station Type Date Time Source
KFEP TAF UTC NOAA

Error!

Example: see airport list